Time;durP1;ratioP1;P1;durP2;ratioP2;P2;SDS_P1;SDS_P2;PMS_P1;PMS_P2;Temp;Humidity;BMP_temperature;BMP_pressure;BME280_temperature;BME280_humidity;BME280_pressure;Samples;Min_cycle;Max_cycle;Signal;HPM_P1;HPM_P2
2023/10/24 00:01:13;;;;;;;;;3.50;3.50;;;;;-143.90;100.00;75678.75;4994121;27;101511;-76
2023/10/24 00:03:40;;;;;;;;;3.25;3.00;;;;;-143.90;100.00;75678.75;4973643;28;102424;-77
2023/10/24 00:06:07;;;;;;;;;3.00;3.00;;;;;-143.90;100.00;75687.03;4998087;27;101878;-78
2023/10/24 00:08:33;;;;;;;;;6.25;4.25;;;;;-143.90;100.00;75689.09;4992918;27;103572;-76
2023/10/24 00:11:04;;;;;;;;;7.75;6.50;;;;;-143.90;100.00;75701.50;4990931;27;102778;-78
2023/10/24 00:13:31;;;;;;;;;7.00;6.75;;;;;-143.90;100.00;75709.78;4971791;28;101615;-77
2023/10/24 00:15:58;;;;;;;;;4.00;4.00;;;;;-143.90;100.00;75718.06;4992985;27;102044;-78
2023/10/24 00:18:26;;;;;;;;;9.25;7.25;;;;;-143.90;100.00;75720.13;4974796;28;102650;-77
2023/10/24 00:20:53;;;;;;;;;9.25;8.00;;;;;-143.90;100.00;75722.19;4976615;28;102884;-77
2023/10/24 00:23:20;;;;;;;;;6.50;6.00;;;;;-143.90;100.00;75720.13;4991898;27;102670;-77
2023/10/24 00:25:47;;;;;;;;;8.25;8.00;;;;;-143.90;100.00;75718.06;4989517;28;101823;-78
2023/10/24 00:28:13;;;;;;;;;10.75;8.50;;;;;-143.90;100.00;75713.91;4994419;27;103046;-77
2023/10/24 00:30:40;;;;;;;;;17.25;12.50;;;;;-143.90;100.00;75726.31;4995453;27;101618;-77
2023/10/24 00:33:07;;;;;;;;;16.00;15.00;;;;;-143.90;100.00;75726.31;4994386;27;101701;-77
2023/10/24 00:35:34;;;;;;;;;16.50;12.25;;;;;-143.90;100.00;75728.38;4994096;27;102429;-77
2023/10/24 00:38:01;;;;;;;;;17.75;12.50;;;;;-143.90;100.00;75736.66;4988402;27;103470;-77
2023/10/24 00:40:27;;;;;;;;;14.50;14.50;;;;;-143.90;100.00;75755.28;4991714;27;101896;-77
2023/10/24 00:42:54;;;;;;;;;25.25;22.50;;;;;-143.90;100.00;75753.19;4992056;27;101936;-78
2023/10/24 00:45:20;;;;;;;;;17.25;17.00;;;;;-143.90;100.00;75751.13;4974785;28;101836;-77
2023/10/24 00:47:47;;;;;;;;;12.00;11.75;;;;;-143.90;100.00;75747.00;4990534;28;102722;-76
2023/10/24 00:50:15;;;;;;;;;17.25;12.75;;;;;-143.90;100.00;75747.00;4983047;27;101759;-77
2023/10/24 00:52:45;;;;;;;;;17.00;13.00;;;;;-143.90;100.00;75742.88;4990380;27;102431;-77
2023/10/24 00:55:13;;;;;;;;;11.25;10.00;;;;;-143.90;100.00;75734.59;4976344;27;108184;-77
2023/10/24 00:57:40;;;;;;;;;8.25;7.50;;;;;-143.90;100.00;75726.31;4967264;27;107765;-78
2023/10/24 01:00:08;;;;;;;;;11.00;8.50;;;;;-143.90;100.00;75718.06;4971280;28;101859;-78
2023/10/24 01:02:35;;;;;;;;;12.50;11.00;;;;;-143.90;100.00;75726.31;4989247;27;102114;-78
2023/10/24 01:05:03;;;;;;;;;18.00;13.00;;;;;-143.90;100.00;75722.19;4976806;27;102075;-78
2023/10/24 01:07:32;;;;;;;;;20.50;19.00;;;;;-143.90;100.00;75728.38;4985826;28;103481;-78
2023/10/24 01:09:59;;;;;;;;;19.00;17.25;;;;;-143.90;100.00;75728.38;4986045;27;101703;-78
2023/10/24 01:12:26;;;;;;;;;27.00;23.50;;;;;-143.90;100.00;75728.38;4987480;27;102504;-78
2023/10/24 01:14:53;;;;;;;;;22.25;20.00;;;;;-143.90;100.00;75726.31;4994674;27;101881;-78
2023/10/24 01:17:19;;;;;;;;;17.00;14.25;;;;;-143.90;100.00;75726.31;4976808;27;103590;-78
2023/10/24 01:19:46;;;;;;;;;15.25;14.25;;;;;-143.90;100.00;75722.19;4997030;27;101730;-78
2023/10/24 01:22:13;;;;;;;;;24.75;21.25;;;;;-143.90;100.00;75730.47;4996194;27;101935;-78
2023/10/24 01:24:41;;;;;;;;;22.25;19.75;;;;;-143.90;100.00;75730.47;4992531;27;101654;-78
2023/10/24 01:27:08;;;;;;;;;22.50;17.50;;;;;-143.90;100.00;75718.06;4992773;27;103486;-77
2023/10/24 01:29:35;;;;;;;;;12.25;10.75;;;;;-143.90;100.00;75718.06;4979570;27;101590;-78
2023/10/24 01:32:02;;;;;;;;;14.75;13.00;;;;;-143.90;100.00;75713.91;4998548;27;102336;-78
2023/10/24 01:34:29;;;;;;;;;15.75;12.75;;;;;-143.90;100.00;75718.06;4989552;27;101770;-78
2023/10/24 01:36:56;;;;;;;;;8.00;8.00;;;;;-143.90;100.00;75715.97;4988123;27;103334;-78
2023/10/24 01:39:23;;;;;;;;;8.50;8.50;;;;;-143.90;100.00;75713.91;4986611;27;102180;-78
2023/10/24 01:41:49;;;;;;;;;18.75;16.75;;;;;-143.90;100.00;75709.78;4988302;27;101925;-78
2023/10/24 01:44:16;;;;;;;;;19.25;16.50;;;;;-143.90;100.00;75707.72;4993144;27;101532;-77
2023/10/24 01:46:42;;;;;;;;;22.00;20.50;;;;;-143.90;100.00;75701.50;4995190;27;103374;-78
2023/10/24 01:49:09;;;;;;;;;16.50;13.75;;;;;-143.90;100.00;75682.91;4989079;27;102390;-78
2023/10/24 01:51:38;;;;;;;;;11.75;11.75;;;;;-143.90;100.00;75680.84;4989030;27;101857;-78
2023/10/24 01:54:05;;;;;;;;;0.00;0.00;;;;;-143.90;100.00;75676.69;4996778;27;101907;-77
2023/10/24 01:56:31;;;;;;;;;18.25;14.00;;;;;-143.90;100.00;75678.75;4986944;28;103553;-78
2023/10/24 01:58:58;;;;;;;;;13.25;12.25;;;;;-143.90;100.00;75670.50;4974665;28;101945;-78
2023/10/24 02:01:24;;;;;;;;;8.00;7.00;;;;;-143.90;100.00;75656.03;4988860;27;103347;-77
2023/10/24 02:03:51;;;;;;;;;24.25;20.50;;;;;-143.90;100.00;75656.03;4997081;27;102042;-77
2023/10/24 02:06:18;;;;;;;;;17.50;16.25;;;;;-143.90;100.00;75656.03;4973401;28;103381;-77
2023/10/24 02:08:44;;;;;;;;;29.75;25.75;;;;;-143.90;100.00;75649.81;4995643;28;102351;-76
2023/10/24 02:11:11;;;;;;;;;40.50;32.25;;;;;-143.90;100.00;75653.94;4994300;27;101562;-77
2023/10/24 02:13:37;;;;;;;;;31.75;30.50;;;;;-143.90;100.00;75649.81;4971783;28;102018;-77
2023/10/24 02:16:04;;;;;;;;;23.25;20.75;;;;;-143.90;100.00;75637.41;4975593;28;103735;-77
2023/10/24 02:18:31;;;;;;;;;23.75;18.25;;;;;-143.90;100.00;75631.22;4975337;27;101888;-77
2023/10/24 02:20:57;;;;;;;;;19.00;15.75;;;;;-143.90;100.00;75622.94;4989281;28;101864;-77
2023/10/24 02:23:24;;;;;;;;;18.75;14.00;;;;;-143.90;100.00;75618.81;4987783;27;101673;-77
2023/10/24 02:25:50;;;;;;;;;24.75;20.50;;;;;-143.90;100.00;75608.47;4987305;28;103407;-78
2023/10/24 02:28:18;;;;;;;;;18.00;16.00;;;;;-143.90;100.00;75596.06;4998511;27;101733;-77
2023/10/24 02:30:44;;;;;;;;;16.25;13.00;;;;;-143.90;100.00;75579.53;4992030;28;102055;-77
2023/10/24 02:33:11;;;;;;;;;20.25;18.00;;;;;-143.90;100.00;75565.03;4989157;28;101576;-78
2023/10/24 02:35:37;;;;;;;;;18.50;17.00;;;;;-143.90;100.00;75556.78;4972258;28;103434;-78
2023/10/24 02:38:06;;;;;;;;;23.50;20.50;;;;;-143.90;100.00;75548.50;4970478;28;106201;-78
2023/10/24 02:40:32;;;;;;;;;17.00;15.75;;;;;-143.90;100.00;75542.31;4989504;28;102050;-77
2023/10/24 02:42:59;;;;;;;;;14.75;12.50;;;;;-143.90;100.00;75540.22;4992989;27;101855;-78
2023/10/24 02:45:25;;;;;;;;;10.75;9.00;;;;;-143.90;100.00;75527.81;4971647;28;103700;-78
2023/10/24 02:47:52;;;;;;;;;26.75;18.75;;;;;-143.90;100.00;75525.75;4970705;28;101854;-78
2023/10/24 02:50:20;;;;;;;;;18.75;15.25;;;;;-143.90;100.00;75521.63;4988166;27;102470;-78
2023/10/24 02:52:46;;;;;;;;;17.50;14.00;;;;;-143.90;100.00;75511.28;5000523;27;102122;-77
2023/10/24 02:55:13;;;;;;;;;9.00;8.00;;;;;-143.90;100.00;75515.41;4994577;27;103319;-78
2023/10/24 02:57:40;;;;;;;;;12.00;10.50;;;;;-143.90;100.00;75523.69;4994844;28;101585;-78
2023/10/24 03:00:07;;;;;;;;;21.00;19.50;;;;;-143.90;100.00;75536.09;4992782;27;101749;-78
2023/10/24 03:02:34;;;;;;;;;25.00;24.00;;;;;-143.90;100.00;75548.50;4980321;27;101778;-77
2023/10/24 03:05:00;;;;;;;;;32.50;28.25;;;;;-143.90;100.00;75550.56;4994859;27;103529;-78
2023/10/24 03:07:28;;;;;;;;;21.50;18.25;;;;;-143.90;100.00;75536.09;4979690;28;102658;-78
2023/10/24 03:09:55;;;;;;;;;16.50;14.50;;;;;-143.90;100.00;75531.97;4993981;28;101815;-77
2023/10/24 03:12:21;;;;;;;;;12.50;11.50;;;;;-143.90;100.00;75523.69;4992992;28;101635;-75
2023/10/24 03:14:48;;;;;;;;;19.00;14.00;;;;;-143.90;100.00;75527.81;4977194;27;103302;-77
2023/10/24 03:17:14;;;;;;;;;12.75;11.00;;;;;-143.90;100.00;75517.50;4998603;27;101896;-77
2023/10/24 03:19:41;;;;;;;;;14.75;13.00;;;;;-143.90;100.00;75511.28;4992057;27;104084;-77
2023/10/24 03:22:08;;;;;;;;;15.00;14.50;;;;;-143.90;100.00;75511.28;4986056;27;102041;-77
2023/10/24 03:24:34;;;;;;;;;14.50;13.50;;;;;-143.90;100.00;75498.88;4988068;27;103838;-78
2023/10/24 03:27:01;;;;;;;;;14.50;12.00;;;;;-143.90;100.00;75494.75;4990415;27;102347;-77
2023/10/24 03:29:27;;;;;;;;;15.50;11.50;;;;;-143.90;100.00;75503.03;4993283;27;101830;-76
2023/10/24 03:31:54;;;;;;;;;22.00;18.25;;;;;-143.90;100.00;75515.41;4988300;28;101732;-77
2023/10/24 03:34:21;;;;;;;;;13.75;13.75;;;;;-143.90;100.00;75515.41;4991987;27;103505;-78
2023/10/24 03:36:47;;;;;;;;;0.75;0.00;;;;;-143.90;100.00;75519.56;4989388;28;102656;-77
2023/10/24 03:39:14;;;;;;;;;12.75;11.50;;;;;-143.90;100.00;75523.69;4991672;27;101722;-77
2023/10/24 03:41:40;;;;;;;;;18.25;15.25;;;;;-143.90;100.00;75523.69;5002269;27;101970;-77
2023/10/24 03:44:07;;;;;;;;;19.00;17.00;;;;;-143.90;100.00;75523.69;4992787;27;102845;-77
2023/10/24 03:46:34;;;;;;;;;20.25;19.00;;;;;-143.90;100.00;75523.69;4990260;28;103105;-77
2023/10/24 03:49:01;;;;;;;;;20.50;19.25;;;;;-143.90;100.00;75542.31;4983932;28;101833;-77
2023/10/24 03:51:27;;;;;;;;;27.50;22.75;;;;;-143.90;100.00;75531.97;4988810;27;103059;-77
2023/10/24 03:53:54;;;;;;;;;19.25;17.50;;;;;-143.90;100.00;75531.97;4991563;27;103399;-78
2023/10/24 03:56:20;;;;;;;;;17.50;17.50;;;;;-143.90;100.00;75517.50;4996143;27;103166;-77
2023/10/24 03:58:47;;;;;;;;;15.00;9.50;;;;;-143.90;100.00;75523.69;4978780;27;102121;-76
2023/10/24 04:01:14;;;;;;;;;14.00;12.50;;;;;-143.90;100.00;75515.41;4982875;27;102114;-77
2023/10/24 04:03:40;;;;;;;;;8.50;7.50;;;;;-143.90;100.00;75511.28;4997302;27;103323;-76
2023/10/24 04:06:13;;;;;;;;;20.00;15.25;;;;;-143.90;100.00;75519.56;4992897;27;102050;-77
2023/10/24 04:08:40;;;;;;;;;34.75;29.00;;;;;-143.90;100.00;75544.38;4995053;27;101485;-77
2023/10/24 04:11:17;;;;;;;;;36.00;29.75;;;;;-143.90;100.00;75548.50;4973509;28;105605;-77
2023/10/24 04:13:45;;;;;;;;;22.75;19.75;;;;;-143.90;100.00;75536.09;4993107;28;107887;-77
2023/10/24 04:16:12;;;;;;;;;23.50;19.50;;;;;-143.90;100.00;75542.31;4977567;28;101881;-78
2023/10/24 04:18:40;;;;;;;;;17.00;15.75;;;;;-143.90;100.00;75534.03;4997531;28;103041;-78
2023/10/24 04:21:06;;;;;;;;;15.00;13.25;;;;;-143.90;100.00;75531.97;4988990;28;102801;-78
2023/10/24 04:23:33;;;;;;;;;14.00;12.25;;;;;-143.90;100.00;75536.09;4977646;28;103873;-77
2023/10/24 04:26:00;;;;;;;;;9.75;7.75;;;;;-143.90;100.00;75536.09;4988100;27;101994;-77
2023/10/24 04:28:27;;;;;;;;;16.50;14.00;;;;;-143.90;100.00;75536.09;4987411;28;101808;-76
2023/10/24 04:30:54;;;;;;;;;22.75;21.25;;;;;-143.90;100.00;75536.09;4987929;27;101905;-76
2023/10/24 04:33:21;;;;;;;;;21.50;17.50;;;;;-143.90;100.00;75523.69;4991927;27;103342;-75
2023/10/24 04:35:49;;;;;;;;;11.25;8.50;;;;;-143.90;100.00;75521.63;4991995;27;101883;-76
2023/10/24 04:38:17;;;;;;;;;8.00;6.00;;;;;-143.90;100.00;75511.28;4988804;28;101982;-77
2023/10/24 04:40:44;;;;;;;;;13.00;12.00;;;;;-143.90;100.00;75503.03;4993997;28;101813;-77
2023/10/24 04:43:11;;;;;;;;;11.50;8.50;;;;;-143.90;100.00;75496.81;4997508;27;103091;-76
2023/10/24 04:45:38;;;;;;;;;8.25;8.25;;;;;-143.90;100.00;75496.81;4994653;27;102059;-77
2023/10/24 04:48:05;;;;;;;;;19.25;15.75;;;;;-143.90;100.00;75503.03;4994526;28;101581;-77
2023/10/24 04:50:36;;;;;;;;;27.50;23.25;;;;;-143.90;100.00;75503.03;4992703;27;101712;-77
2023/10/24 04:53:03;;;;;;;;;37.25;33.25;;;;;-143.90;100.00;75486.47;4983414;27;102824;-77
2023/10/24 04:55:30;;;;;;;;;23.50;23.00;;;;;-143.90;100.00;75453.41;4993310;28;102024;-77
2023/10/24 04:57:57;;;;;;;;;23.75;22.25;;;;;-143.90;100.00;75447.19;4994805;28;101858;-78
2023/10/24 05:00:26;;;;;;;;;17.00;16.25;;;;;-143.90;100.00;75436.84;4979912;27;101850;-76
2023/10/24 05:02:53;;;;;;;;;23.75;21.50;;;;;-143.90;100.00;75441.00;4976590;28;103609;-76
2023/10/24 05:05:20;;;;;;;;;28.75;26.50;;;;;-143.90;100.00;75436.84;4996054;27;101840;-75
2023/10/24 05:07:46;;;;;;;;;25.75;23.00;;;;;-143.90;100.00;75445.13;4980909;27;101840;-76
2023/10/24 05:10:13;;;;;;;;;19.50;18.50;;;;;-143.90;100.00;75443.06;4991115;27;101713;-76
2023/10/24 05:12:40;;;;;;;;;9.50;8.75;;;;;-143.90;100.00;75447.19;4992928;28;103566;-76
2023/10/24 05:15:07;;;;;;;;;17.75;14.75;;;;;-143.90;100.00;75451.31;4995889;27;101698;-77
2023/10/24 05:17:34;;;;;;;;;16.00;14.25;;;;;-143.90;100.00;75449.25;5001347;27;101622;-76
2023/10/24 05:20:07;;;;;;;;;18.75;17.50;;;;;-143.90;100.00;75453.41;4998995;27;102350;-77
2023/10/24 05:22:34;;;;;;;;;13.00;13.00;;;;;-143.90;100.00;75455.47;4996205;27;103520;-77
2023/10/24 05:25:01;;;;;;;;;12.50;10.25;;;;;-143.90;100.00;75461.66;4991059;28;101801;-76
2023/10/24 05:27:27;;;;;;;;;9.50;9.00;;;;;-143.90;100.00;75469.94;5004467;27;101592;-77
2023/10/24 05:29:54;;;;;;;;;7.25;7.25;;;;;-143.90;100.00;75478.22;5000678;27;101960;-76
2023/10/24 05:32:21;;;;;;;;;11.00;10.00;;;;;-143.90;100.00;75467.88;4996962;27;103289;-76
2023/10/24 05:34:48;;;;;;;;;17.25;15.00;;;;;-143.90;100.00;75484.41;4995563;28;103188;-72
2023/10/24 05:37:14;;;;;;;;;21.50;20.50;;;;;-143.90;100.00;75505.09;4976809;28;101573;-77
2023/10/24 05:39:41;;;;;;;;;18.75;18.50;;;;;-143.90;100.00;75507.16;5004076;27;102061;-77
2023/10/24 05:42:08;;;;;;;;;24.25;20.25;;;;;-143.90;100.00;75503.03;4998912;27;103491;-77
2023/10/24 05:44:34;;;;;;;;;33.75;25.25;;;;;-143.90;100.00;75496.81;4995971;27;101597;-76
2023/10/24 05:47:01;;;;;;;;;37.25;34.00;;;;;-143.90;100.00;75492.69;4995161;27;101653;-77
2023/10/24 05:49:29;;;;;;;;;33.50;27.25;;;;;-143.90;100.00;75478.22;4987334;28;103446;-76
2023/10/24 05:51:56;;;;;;;;;34.75;32.25;;;;;-143.90;100.00;75467.88;4998513;28;103405;-76
2023/10/24 05:54:22;;;;;;;;;26.00;23.75;;;;;-143.90;100.00;75455.47;4982292;28;101716;-76
2023/10/24 05:56:49;;;;;;;;;28.75;26.50;;;;;-143.90;100.00;75453.41;4997160;27;101920;-76
2023/10/24 05:59:15;;;;;;;;;27.50;23.00;;;;;-143.90;100.00;75441.00;4999112;28;101609;-76
2023/10/24 06:01:44;;;;;;;;;24.50;23.00;;;;;-143.90;100.00;75445.13;4994321;27;107348;-77
2023/10/24 06:04:10;;;;;;;;;26.00;22.25;;;;;-143.90;100.00;75426.50;5001349;27;101776;-76
2023/10/24 06:06:37;;;;;;;;;21.75;19.50;;;;;-143.90;100.00;75412.03;4998490;27;101997;-76
2023/10/24 06:09:04;;;;;;;;;18.50;17.75;;;;;-143.90;100.00;75407.91;4997937;27;101714;-76
2023/10/24 06:11:30;;;;;;;;;23.25;23.25;;;;;-143.90;100.00;75395.50;4992039;28;103492;-76
2023/10/24 06:13:57;;;;;;;;;26.75;23.50;;;;;-143.90;100.00;75385.16;4989611;28;101727;-76
2023/10/24 06:16:23;;;;;;;;;32.25;29.00;;;;;-143.90;100.00;75391.38;4994591;28;101978;-76
2023/10/24 06:18:50;;;;;;;;;31.50;29.25;;;;;-143.90;100.00;75391.38;5002283;28;101613;-76
2023/10/24 06:21:17;;;;;;;;;27.00;26.25;;;;;-143.90;100.00;75356.22;4997889;27;103640;-77
2023/10/24 06:23:43;;;;;;;;;28.25;26.00;;;;;-143.90;100.00;75352.09;4994053;27;101807;-77
2023/10/24 06:26:14;;;;;;;;;25.00;22.75;;;;;-143.90;100.00;75345.88;4978163;28;101950;-78
2023/10/24 06:28:42;;;;;;;;;34.00;24.75;;;;;-143.90;100.00;75341.75;4981967;27;101644;-76
2023/10/24 06:31:09;;;;;;;;;28.00;23.00;;;;;-143.90;100.00;75329.34;4998464;27;103414;-75
2023/10/24 06:33:37;;;;;;;;;23.50;19.25;;;;;-143.90;100.00;75312.81;4994696;27;102006;-76
2023/10/24 06:36:05;;;;;;;;;26.00;18.75;;;;;-143.90;100.00;75279.72;4972608;27;101815;-76
2023/10/24 06:38:31;;;;;;;;;29.75;24.00;;;;;-143.90;100.00;75271.47;4995814;27;101523;-76
2023/10/24 06:40:58;;;;;;;;;28.25;21.00;;;;;-143.90;100.00;75259.06;4996262;27;103445;-75
2023/10/24 06:43:26;;;;;;;;;27.75;20.00;;;;;-143.90;100.00;75246.66;4998770;27;101897;-76
2023/10/24 06:45:53;;;;;;;;;15.00;11.50;;;;;-143.90;100.00;75221.84;4992049;27;101608;-75
2023/10/24 06:48:20;;;;;;;;;13.00;10.00;;;;;-143.90;100.00;75213.56;4993530;28;101552;-75
2023/10/24 06:50:47;;;;;;;;;15.75;13.50;;;;;-143.90;100.00;75199.09;5003328;27;102729;-76
2023/10/24 06:53:14;;;;;;;;;15.25;12.25;;;;;-143.90;100.00;75188.75;5003240;27;101836;-77
2023/10/24 06:55:41;;;;;;;;;19.25;15.25;;;;;-143.90;100.00;75178.41;4995107;27;102560;-75
2023/10/24 06:58:08;;;;;;;;;15.25;13.50;;;;;-143.90;100.00;75163.94;4995643;27;101938;-76
2023/10/24 07:00:34;;;;;;;;;6.25;4.00;;;;;-143.90;100.00;75145.34;4972503;28;104753;-76
2023/10/24 07:03:01;;;;;;;;;7.00;4.25;;;;;-143.90;100.00;75122.59;4991825;27;101879;-75
2023/10/24 07:05:28;;;;;;;;;13.00;10.00;;;;;-143.90;100.00;75081.25;5000138;27;101845;-75
2023/10/24 07:07:55;;;;;;;;;10.75;10.00;;;;;-143.90;100.00;75039.91;4999002;28;101585;-76
2023/10/24 07:10:22;;;;;;;;;13.75;10.25;;;;;-143.90;100.00;75006.84;4993224;28;102239;-76
2023/10/24 07:12:49;;;;;;;;;20.00;17.25;;;;;-143.90;100.00;74998.56;4992677;27;101460;-76
2023/10/24 07:15:15;;;;;;;;;19.50;18.00;;;;;-143.90;100.00;74965.50;4998744;27;101581;-76
2023/10/24 07:17:42;;;;;;;;;20.50;18.50;;;;;-143.90;100.00;74932.41;4982837;28;101671;-76
2023/10/24 07:20:10;;;;;;;;;15.50;15.00;;;;;-143.90;100.00;74895.19;4999629;27;103342;-76
2023/10/24 07:22:37;;;;;;;;;14.75;13.00;;;;;-143.90;100.00;74864.19;4993826;27;102496;-76
2023/10/24 07:25:04;;;;;;;;;10.75;10.75;;;;;-143.90;100.00;74860.06;4980369;27;102028;-75
2023/10/24 07:27:31;;;;;;;;;8.00;6.00;;;;;-143.90;100.00;74833.19;5005160;27;101858;-76
2023/10/24 07:29:57;;;;;;;;;5.00;5.00;;;;;-143.90;100.00;74814.56;5000977;27;103504;-75
2023/10/24 07:32:24;;;;;;;;;5.50;4.25;;;;;-143.90;100.00;74802.16;4974907;28;102207;-76
2023/10/24 07:34:55;;;;;;;;;5.00;4.50;;;;;-143.90;100.00;74783.56;4997481;27;101683;-76
2023/10/24 07:37:23;;;;;;;;;6.00;3.00;;;;;-143.90;100.00;74754.63;4994019;28;102184;-76
2023/10/24 07:39:50;;;;;;;;;2.75;2.75;;;;;-143.90;100.00;74727.75;5006144;27;103359;-76
2023/10/24 07:42:17;;;;;;;;;6.75;4.00;;;;;-143.90;100.00;74715.34;5004285;27;101811;-76
2023/10/24 07:44:44;;;;;;;;;7.25;4.00;;;;;-143.90;100.00;74694.69;4998210;27;101911;-77
2023/10/24 07:47:10;;;;;;;;;3.75;3.00;;;;;-143.90;100.00;74678.16;5000136;27;101961;-76
2023/10/24 07:49:37;;;;;;;;;4.00;4.00;;;;;-143.90;100.00;74645.06;4993974;28;103363;-76
2023/10/24 07:52:04;;;;;;;;;2.50;2.50;;;;;-143.90;100.00;74634.72;5000534;27;102646;-75
2023/10/24 07:54:31;;;;;;;;;2.25;2.25;;;;;-143.90;100.00;74605.78;4999626;28;101703;-76
2023/10/24 07:56:59;;;;;;;;;2.00;2.00;;;;;-143.90;100.00;74585.13;5001281;28;101490;-75
2023/10/24 07:59:29;;;;;;;;;5.00;4.75;;;;;-143.90;95.81;74552.03;4994058;28;103163;-75
2023/10/24 08:01:56;;;;;;;;;3.75;3.00;;;;;-143.90;98.67;74518.97;4975570;28;101419;-76
2023/10/24 08:04:23;;;;;;;;;1.50;1.25;;;;;-143.90;98.08;74481.78;4998028;27;101853;-76
2023/10/24 08:06:49;;;;;;;;;1.50;1.50;;;;;-143.90;98.04;74469.38;5001470;27;106003;-76
2023/10/24 08:09:16;;;;;;;;;2.00;2.00;;;;;-143.90;97.62;74452.84;4997549;27;108295;-77
2023/10/24 08:11:42;;;;;;;;;3.00;3.00;;;;;-143.90;93.29;74438.38;4995853;27;102834;-76
2023/10/24 08:14:09;;;;;;;;;2.75;2.75;;;;;-143.90;92.08;74432.16;4999473;28;102220;-76
2023/10/24 08:16:36;;;;;;;;;5.50;4.75;;;;;-143.90;92.72;74423.88;5003945;27;101715;-76
2023/10/24 08:19:04;;;;;;;;;5.50;4.00;;;;;-143.90;89.87;74413.56;4999663;27;102645;-76
2023/10/24 08:21:30;;;;;;;;;26.25;23.75;;;;;-143.90;88.88;74388.75;5000690;27;101853;-76
2023/10/24 08:23:57;;;;;;;;;55.50;43.50;;;;;-143.90;84.66;74378.41;4994757;27;101833;-75
2023/10/24 08:26:24;;;;;;;;;39.00;34.00;;;;;-143.90;86.57;74353.63;4984046;28;102102;-75
2023/10/24 08:28:51;;;;;;;;;22.25;19.50;;;;;-143.90;87.11;74326.75;5001124;28;103441;-75
2023/10/24 08:31:17;;;;;;;;;11.00;11.00;;;;;-143.90;80.15;74335.00;4984786;28;102592;-76
2023/10/24 08:33:44;;;;;;;;;7.75;7.00;;;;;-143.90;87.18;74312.28;4996950;28;101604;-76
2023/10/24 08:36:11;;;;;;;;;7.75;7.00;;;;;-143.90;84.80;74283.34;4996826;27;102046;-75
2023/10/24 08:38:37;;;;;;;;;5.50;5.00;;;;;-143.90;84.17;74266.81;5000957;27;103361;-76
2023/10/24 08:41:05;;;;;;;;;2.00;2.00;;;;;-143.90;83.26;74258.53;5003599;28;102075;-76
2023/10/24 08:43:33;;;;;;;;;2.00;1.00;;;;;-143.90;79.16;74254.41;5000249;27;101886;-74
2023/10/24 08:46:00;;;;;;;;;2.50;2.50;;;;;-143.90;79.21;74250.25;4997411;28;101492;-76
2023/10/24 08:48:31;;;;;;;;;3.33;3.00;;;;;-143.90;76.66;74250.25;4995912;28;103131;-74
2023/10/24 08:50:58;;;;;;;;;1.00;1.00;;;;;-143.90;79.32;74246.13;4996119;28;101895;-76
2023/10/24 08:53:24;;;;;;;;;2.00;1.67;;;;;-143.90;78.56;74239.94;5002027;28;101756;-76
2023/10/24 08:55:57;;;;;;;;;2.33;2.33;;;;;-143.90;80.00;74239.94;5000841;27;103234;-75
2023/10/24 08:58:24;;;;;;;;;2.00;2.00;;;;;-143.90;81.35;74250.25;4976717;28;103580;-75
2023/10/24 09:00:51;;;;;;;;;1.33;1.00;;;;;-143.90;80.94;74246.13;4993998;28;101910;-76
2023/10/24 09:03:18;;;;;;;;;2.33;2.33;;;;;-143.90;78.25;74250.25;5003410;27;101714;-76
2023/10/24 09:05:46;;;;;;;;;3.00;2.00;;;;;-143.90;81.85;74229.59;5003955;27;101780;-77
2023/10/24 09:08:16;;;;;;;;;2.00;2.00;;;;;-143.90;80.39;74213.06;4993620;28;103658;-74
2023/10/24 09:10:45;;;;;;;;;3.00;2.00;;;;;-143.90;80.04;74196.53;4997143;27;102071;-76
2023/10/24 09:13:12;;;;;;;;;2.00;2.00;;;;;-143.90;82.68;74177.94;4995193;27;101649;-76
2023/10/24 09:15:40;;;;;;;;;1.00;1.00;;;;;-143.90;78.54;74163.47;5007145;28;101698;-77
2023/10/24 09:18:06;;;;;;;;;2.00;2.00;;;;;-143.90;78.40;74142.78;5000737;27;103563;-77
2023/10/24 09:20:34;;;;;;;;;2.33;2.00;;;;;-143.90;78.68;74122.13;5000276;27;101738;-76
2023/10/24 09:23:08;;;;;;;;;1.00;1.00;;;;;-143.90;76.47;74107.66;4993523;27;101920;-77
2023/10/24 09:25:35;;;;;;;;;3.67;2.00;;;;;-143.90;73.35;74105.59;4993456;27;101817;-77
2023/10/24 09:28:18;;;;;;;;;4.00;3.33;;;;;-143.90;74.71;74089.06;5003655;28;103561;-76
2023/10/24 09:30:45;;;;;;;;;4.67;4.33;;;;;-143.90;77.45;74086.97;5001426;28;102171;-76
2023/10/24 09:33:12;;;;;;;;;2.67;2.67;;;;;-143.90;74.80;74072.50;4978164;27;101722;-76
2023/10/24 09:35:40;;;;;;;;;3.33;3.00;;;;;-143.90;74.39;74051.84;4997782;27;101840;-76
2023/10/24 09:38:07;;;;;;;;;5.00;3.00;;;;;-143.90;74.68;74035.31;4980795;28;102261;-76
2023/10/24 09:40:36;;;;;;;;;3.00;2.67;;;;;-143.90;74.04;74022.91;4999136;28;101966;-77
2023/10/24 09:43:10;;;;;;;;;3.67;3.00;;;;;-143.90;71.20;74014.66;4998872;27;101953;-76
2023/10/24 09:45:41;;;;;;;;;4.33;3.00;;;;;-143.90;69.84;73996.03;4978104;28;101819;-76
2023/10/24 09:48:09;;;;;;;;;3.00;2.00;;;;;-143.90;68.40;73989.84;4995291;27;103397;-76
2023/10/24 09:50:38;;;;;;;;;3.67;3.00;;;;;-143.90;68.96;73977.44;4999555;27;101844;-77
2023/10/24 09:53:05;;;;;;;;;2.00;2.00;;;;;-143.90;68.93;73952.63;5000813;27;101790;-76
2023/10/24 09:55:34;;;;;;;;;2.00;2.00;;;;;-143.90;68.59;73927.84;5000604;27;101799;-76
2023/10/24 09:58:02;;;;;;;;;2.00;2.00;;;;;-143.90;69.67;73907.16;4994850;27;103611;-76
2023/10/24 10:00:30;;;;;;;;;3.33;3.00;;;;;-143.90;68.72;73892.69;4993745;27;101750;-76
2023/10/24 10:02:58;;;;;;;;;2.67;2.67;;;;;-143.90;66.16;73903.03;4994846;27;101729;-75
2023/10/24 10:05:30;;;;;;;;;4.00;4.00;;;;;-143.90;66.38;73882.38;4999242;28;102030;-75
2023/10/24 10:08:00;;;;;;;;;4.00;3.67;;;;;-143.90;64.90;73874.09;4994632;28;103389;-76
2023/10/24 10:10:27;;;;;;;;;5.00;4.33;;;;;-143.90;66.99;73888.56;4977530;28;101762;-76
2023/10/24 10:13:00;;;;;;;;;5.00;4.00;;;;;-143.90;66.19;73874.09;4983184;28;101639;-75
2023/10/24 10:15:50;;;;;;;;;5.00;5.00;;;;;-143.90;65.28;73869.97;4977397;28;101645;-76
2023/10/24 10:18:37;;;;;;;;;2.67;2.33;;;;;-143.90;62.81;73878.25;4978199;28;108053;-75
2023/10/24 10:21:44;;;;;;;;;4.00;4.00;;;;;-143.90;64.93;73857.56;4992038;28;101600;-77
2023/10/24 10:24:35;;;;;;;;;5.00;4.67;;;;;-143.90;68.02;73886.50;4971886;28;102167;-76
2023/10/24 10:27:40;;;;;;;;;4.33;4.00;;;;;-143.90;67.39;73861.69;4982645;28;101975;-75
2023/10/24 10:30:39;;;;;;;;;5.00;4.00;;;;;-143.90;66.99;73869.97;4918371;28;107567;-76
2023/10/24 10:33:24;;;;;;;;;3.00;2.33;;;;;-143.90;66.40;73828.63;4914983;28;101739;-76
2023/10/24 10:36:02;;;;;;;;;2.00;2.00;;;;;-143.90;63.75;73828.63;4975216;28;101638;-75
2023/10/24 10:38:38;;;;;;;;;2.00;2.00;;;;;-143.90;67.70;73803.84;4977679;28;101595;-75
2023/10/24 10:41:22;;;;;;;;;1.67;1.67;;;;;-143.90;63.76;73801.78;4980652;28;103044;-76
2023/10/24 10:43:49;;;;;;;;;1.67;1.00;;;;;-143.90;63.43;73805.91;4977420;28;101851;-76
2023/10/24 10:46:21;;;;;;;;;1.00;1.00;;;;;-143.90;66.88;73797.63;4972504;28;101648;-76
2023/10/24 10:48:48;;;;;;;;;2.00;2.00;;;;;-143.90;64.11;73793.50;4975200;28;101719;-77
2023/10/24 10:51:23;;;;;;;;;1.00;1.00;;;;;-143.90;62.21;73787.31;4979623;28;103597;-76
2023/10/24 10:54:09;;;;;;;;;4.67;4.67;;;;;-143.90;61.23;73791.44;4977451;28;101779;-77
2023/10/24 10:56:39;;;;;;;;;4.00;4.00;;;;;-143.90;57.76;73766.63;4974892;28;101919;-75
2023/10/24 10:59:06;;;;;;;;;4.00;4.00;;;;;-143.90;61.24;73731.50;4973524;28;101582;-76